createdAt,value
2023-02-19T00:03:41.348Z,22.75
2023-02-19T00:07:52.904Z,22.42
2023-02-19T00:12:04.596Z,23.85
2023-02-19T00:16:17.277Z,18.38
2023-02-19T00:20:28.999Z,24.63
2023-02-19T00:24:40.563Z,19.90
2023-02-19T00:28:53.470Z,19.45
2023-02-19T00:33:05.179Z,17.00
2023-02-19T00:37:17.150Z,26.88
2023-02-19T00:41:29.040Z,19.92
2023-02-19T00:45:40.632Z,21.15
2023-02-19T00:49:52.223Z,20.83
2023-02-19T00:54:05.338Z,16.15
2023-02-19T00:58:16.988Z,17.58
2023-02-19T01:02:28.852Z,14.40
2023-02-19T01:06:41.374Z,16.15
2023-02-19T01:10:53.491Z,16.15
2023-02-19T01:15:05.316Z,14.40
2023-02-19T01:19:17.036Z,18.35
2023-02-19T01:23:28.601Z,21.70
2023-02-19T01:27:40.167Z,16.10
2023-02-19T01:31:51.809Z,17.25
2023-02-19T01:36:04.851Z,15.93
2023-02-19T01:40:17.980Z,17.63
2023-02-19T01:44:29.472Z,18.25
2023-02-19T01:48:41.400Z,14.18
2023-02-19T01:52:53.030Z,15.63
2023-02-19T01:57:09.287Z,16.60
2023-02-19T02:01:20.942Z,14.55
2023-02-19T02:05:44.260Z,14.25
2023-02-19T02:10:15.020Z,10.90
2023-02-19T02:14:31.248Z,11.90
2023-02-19T02:18:45.811Z,12.93
2023-02-19T02:23:07.278Z,12.75
2023-02-19T02:27:35.148Z,12.02
2023-02-19T02:31:57.056Z,16.88
2023-02-19T02:36:22.034Z,10.23
2023-02-19T02:40:34.746Z,10.68
2023-02-19T02:45:05.091Z,12.70
2023-02-19T02:49:23.597Z,13.82
2023-02-19T02:54:02.058Z,11.30
2023-02-19T02:58:15.399Z,13.20
2023-02-19T03:02:31.351Z,8.45
2023-02-19T03:06:47.521Z,17.67
2023-02-19T03:11:31.187Z,10.85
2023-02-19T03:16:09.342Z,10.30
2023-02-19T03:20:23.883Z,7.20
2023-02-19T03:24:59.897Z,12.20
2023-02-19T03:29:26.208Z,9.02
2023-02-19T03:33:50.406Z,11.45
2023-02-19T03:38:18.765Z,9.07
2023-02-19T03:42:39.992Z,10.48
2023-02-19T03:46:56.920Z,9.80
2023-02-19T03:51:32.907Z,7.97
2023-02-19T03:56:06.710Z,6.05
2023-02-19T04:00:38.478Z,7.13
2023-02-19T04:04:56.351Z,6.00
2023-02-19T04:09:12.412Z,7.88
2023-02-19T04:13:39.399Z,8.38
2023-02-19T04:17:57.229Z,7.05
2023-02-19T04:22:10.816Z,7.40
2023-02-19T04:26:22.960Z,11.73
2023-02-19T04:30:34.594Z,5.82
2023-02-19T04:34:46.258Z,6.05
2023-02-19T04:38:57.969Z,8.63
2023-02-19T04:43:09.560Z,8.63
2023-02-19T04:47:21.155Z,7.10
2023-02-19T04:51:32.673Z,8.27
2023-02-19T04:55:44.332Z,7.47
2023-02-19T04:59:55.989Z,5.28
2023-02-19T05:04:07.746Z,8.43
2023-02-19T05:08:19.824Z,8.18
2023-02-19T05:12:31.661Z,9.50
2023-02-19T05:16:43.200Z,8.70
2023-02-19T05:20:54.761Z,10.10
2023-02-19T05:25:06.522Z,8.40
2023-02-19T05:29:18.147Z,7.30
2023-02-19T05:33:29.780Z,7.32
2023-02-19T05:37:41.333Z,5.25
2023-02-19T05:41:52.849Z,9.38
2023-02-19T05:46:05.003Z,11.53
2023-02-19T05:50:16.691Z,10.43
2023-02-19T05:54:29.305Z,5.45
2023-02-19T05:58:40.869Z,11.98
2023-02-19T06:02:53.049Z,9.90
2023-02-19T06:07:04.571Z,7.82
2023-02-19T06:11:17.161Z,8.10
2023-02-19T06:15:29.897Z,10.85
2023-02-19T06:19:41.583Z,9.97
2023-02-19T06:23:54.579Z,8.83
2023-02-19T06:28:59.732Z,6.70
2023-02-19T06:33:11.249Z,8.90
2023-02-19T06:37:22.838Z,10.13
2023-02-19T06:41:34.446Z,11.07
2023-02-19T06:45:46.080Z,13.13
2023-02-19T06:49:57.779Z,8.77
2023-02-19T06:54:09.367Z,10.03
2023-02-19T06:58:20.867Z,7.47
2023-02-19T07:02:32.458Z,14.80
2023-02-19T07:06:44.069Z,7.20
2023-02-19T07:10:57.521Z,9.38
2023-02-19T07:15:10.010Z,8.37
2023-02-19T07:19:21.568Z,11.23
2023-02-19T07:23:33.168Z,6.60
2023-02-19T07:27:44.679Z,8.02
2023-02-19T07:31:56.343Z,9.13
2023-02-19T07:36:08.507Z,9.10
2023-02-19T07:40:20.030Z,9.68
2023-02-19T07:44:31.622Z,9.10
2023-02-19T07:48:44.281Z,7.65
2023-02-19T07:52:55.847Z,7.65
2023-02-19T07:57:07.421Z,10.73
2023-02-19T08:01:40.469Z,8.45
2023-02-19T08:05:53.823Z,8.85
2023-02-19T08:10:24.481Z,10.48
2023-02-19T08:14:36.086Z,8.63
2023-02-19T08:18:48.689Z,8.57
2023-02-19T08:23:00.171Z,8.50
2023-02-19T08:27:11.644Z,8.82
2023-02-19T08:31:23.258Z,12.80
2023-02-19T08:35:36.587Z,10.85
2023-02-19T08:39:48.086Z,9.48
2023-02-19T09:42:23.943Z,10.02
2023-02-19T09:46:50.155Z,9.35
2023-02-19T09:51:02.877Z,8.90
2023-02-19T10:13:31.346Z,7.40
2023-02-19T10:17:42.981Z,10.00
2023-02-19T10:21:56.611Z,9.85
2023-02-19T10:26:08.415Z,9.18
2023-02-19T10:30:24.454Z,7.80
2023-02-19T10:34:36.086Z,7.07
2023-02-19T10:38:48.109Z,6.20
2023-02-19T10:43:04.154Z,17.20
2023-02-19T10:47:19.178Z,7.53
2023-02-19T10:51:39.842Z,10.10
2023-02-19T10:56:12.896Z,5.90
2023-02-19T11:00:27.461Z,6.78
2023-02-19T11:04:39.133Z,6.45
2023-02-19T11:08:54.561Z,4.57
2023-02-19T11:13:12.331Z,5.38
2023-02-19T11:17:30.406Z,4.18
2023-02-19T11:21:42.011Z,2.40
2023-02-19T11:25:56.410Z,3.00
2023-02-19T11:30:30.033Z,3.88
2023-02-19T11:34:41.958Z,2.47
2023-02-19T11:38:54.718Z,4.25
2023-02-19T11:43:30.259Z,3.53
2023-02-19T11:48:12.663Z,3.53
2023-02-19T11:52:38.211Z,4.55
2023-02-19T11:57:02.477Z,3.22
2023-02-19T12:01:29.514Z,2.72
2023-02-19T12:06:09.825Z,2.75
2023-02-19T12:10:46.403Z,3.00
2023-02-19T12:15:23.407Z,2.47
2023-02-19T12:19:47.044Z,3.03
2023-02-19T12:24:20.718Z,3.10
2023-02-19T12:28:38.360Z,2.75
2023-02-19T12:33:04.538Z,3.60
2023-02-19T12:37:38.821Z,2.05
2023-02-19T12:42:03.542Z,2.80
2023-02-19T12:46:37.918Z,2.70
2023-02-19T12:50:56.868Z,2.42
2023-02-19T12:55:30.612Z,2.20
2023-02-19T13:00:07.421Z,3.22
2023-02-19T13:04:36.806Z,2.25
2023-02-19T13:09:06.290Z,2.50
2023-02-19T13:13:30.143Z,2.47
2023-02-19T13:17:47.383Z,4.72
2023-02-19T13:22:52.944Z,2.53
2023-02-19T13:27:04.447Z,2.53
2023-02-19T13:31:31.801Z,3.25
2023-02-19T13:36:00.548Z,1.50
2023-02-19T13:40:26.699Z,3.47
2023-02-19T13:44:40.852Z,2.33
2023-02-19T13:49:23.597Z,1.73
2023-02-19T13:53:42.068Z,0.95
2023-02-19T13:57:53.662Z,1.42
2023-02-19T14:02:09.670Z,2.30
2023-02-19T14:06:21.369Z,2.50
2023-02-19T14:10:51.752Z,2.97
2023-02-19T14:15:25.360Z,2.70
2023-02-19T14:19:42.962Z,3.25
2023-02-19T14:23:58.439Z,2.78
2023-02-19T14:28:09.931Z,2.38
2023-02-19T14:32:21.711Z,2.38
2023-02-19T14:36:45.184Z,2.30
2023-02-19T14:40:57.547Z,3.03
2023-02-19T14:45:09.783Z,2.50
2023-02-19T14:49:30.097Z,2.35
2023-02-19T14:53:44.700Z,5.13
2023-02-19T14:57:59.700Z,1.63
2023-02-19T15:02:21.076Z,2.22
2023-02-19T15:06:35.162Z,2.58
2023-02-19T15:10:47.122Z,1.67
2023-02-19T15:15:02.879Z,2.10
2023-02-19T15:19:17.064Z,3.40
2023-02-19T15:23:30.693Z,5.88
2023-02-19T15:27:42.208Z,3.05
2023-02-19T15:31:56.950Z,2.75
2023-02-19T15:36:09.768Z,2.58
2023-02-19T15:40:26.706Z,5.78
2023-02-19T15:44:46.106Z,4.28
2023-02-19T15:49:15.411Z,4.63
2023-02-19T15:53:30.749Z,5.88
2023-02-19T15:57:47.242Z,3.65
2023-02-19T16:02:00.640Z,3.17
2023-02-19T16:06:14.966Z,3.10
2023-02-19T16:10:26.488Z,2.77
2023-02-19T16:14:37.987Z,2.97
2023-02-19T16:18:51.587Z,2.50
2023-02-19T16:23:14.635Z,1.98
2023-02-19T16:27:36.441Z,2.38
2023-02-19T16:31:54.241Z,2.43
2023-02-19T16:36:26.443Z,3.80
2023-02-19T16:40:54.268Z,2.35
2023-02-19T16:45:07.959Z,1.83
2023-02-19T16:49:20.891Z,4.33
2023-02-19T16:53:33.292Z,3.30
2023-02-19T16:57:44.960Z,4.63
2023-02-19T17:01:56.567Z,2.83
2023-02-19T17:06:08.196Z,2.10
2023-02-19T17:10:23.003Z,2.57
2023-02-19T17:14:34.443Z,2.47
2023-02-19T17:18:45.964Z,2.37
2023-02-19T17:22:57.544Z,2.63
2023-02-19T17:27:13.075Z,2.70
2023-02-19T17:31:24.660Z,2.73
2023-02-19T17:35:36.244Z,3.53
2023-02-19T17:39:49.020Z,2.67
2023-02-19T17:44:00.577Z,3.97
2023-02-19T17:48:13.860Z,4.83
2023-02-19T17:52:25.387Z,4.63
2023-02-19T17:56:37.175Z,4.23
2023-02-19T18:00:48.678Z,7.73
2023-02-19T18:05:00.232Z,5.27
2023-02-19T18:09:15.164Z,3.40
2023-02-19T18:13:26.740Z,3.63
2023-02-19T18:17:38.234Z,2.70
2023-02-19T18:21:49.752Z,3.07
2023-02-19T18:26:01.327Z,3.40
2023-02-19T18:30:16.669Z,2.90
2023-02-19T18:34:28.226Z,3.10
2023-02-19T18:38:39.968Z,3.17
2023-02-19T18:42:51.859Z,2.73
2023-02-19T18:47:03.564Z,2.60
2023-02-19T18:51:15.088Z,2.87
2023-02-19T18:55:26.712Z,2.87
2023-02-19T18:59:40.186Z,3.30
2023-02-19T19:03:51.723Z,3.00
2023-02-19T19:08:03.402Z,2.57
2023-02-19T19:12:16.416Z,3.10
2023-02-19T19:16:29.087Z,2.37
2023-02-19T19:20:40.584Z,5.03
2023-02-19T19:24:52.272Z,4.30
2023-02-19T19:29:04.324Z,2.87
2023-02-19T19:33:17.731Z,6.10
2023-02-19T19:37:29.722Z,2.37
2023-02-19T19:41:41.293Z,3.03
2023-02-19T19:45:52.897Z,3.50
2023-02-19T19:50:04.697Z,5.03
2023-02-19T19:54:16.344Z,1.90
2023-02-19T19:58:28.238Z,3.50
2023-02-19T20:02:40.028Z,3.13
2023-02-19T20:06:53.424Z,5.93
2023-02-19T20:11:05.105Z,3.73
2023-02-19T20:15:21.942Z,3.77
2023-02-19T20:19:33.454Z,6.30
2023-02-19T20:23:45.010Z,2.30
2023-02-19T20:27:56.566Z,3.80
2023-02-19T20:32:08.066Z,3.30
2023-02-19T20:36:20.259Z,4.20
2023-02-19T20:40:32.756Z,5.27
2023-02-19T20:44:44.380Z,6.83
2023-02-19T20:48:56.588Z,5.30
2023-02-19T20:53:08.179Z,6.33
2023-02-19T20:57:19.623Z,7.70
2023-02-19T21:01:31.191Z,6.30
2023-02-19T21:05:42.938Z,6.13
2023-02-19T21:09:54.927Z,5.00
2023-02-19T21:14:06.461Z,6.13
2023-02-19T21:18:19.847Z,4.17
2023-02-19T21:22:31.293Z,4.20
2023-02-19T21:26:44.100Z,4.10
2023-02-19T21:30:55.717Z,5.30
2023-02-19T21:35:07.573Z,7.97
2023-02-19T21:39:20.934Z,5.80
2023-02-19T21:43:32.460Z,6.80
2023-02-19T21:47:43.989Z,6.03
2023-02-19T21:51:55.496Z,5.27
2023-02-19T21:56:07.115Z,7.53
2023-02-19T22:00:18.882Z,5.50
2023-02-19T22:04:30.473Z,5.07
2023-02-19T22:08:42.016Z,6.03
2023-02-19T22:12:53.537Z,5.93
2023-02-19T22:17:05.112Z,5.23
2023-02-19T22:21:17.391Z,5.97
2023-02-19T22:25:28.868Z,6.00
2023-02-19T22:29:40.392Z,6.00
2023-02-19T22:33:53.384Z,5.20
2023-02-19T22:38:04.906Z,5.50
2023-02-19T22:42:16.726Z,4.03
2023-02-19T22:46:30.376Z,5.20
2023-02-19T22:50:41.892Z,4.40
2023-02-19T22:54:56.757Z,3.97
2023-02-19T22:59:08.307Z,5.03
2023-02-19T23:03:19.826Z,6.73
2023-02-19T23:07:31.295Z,4.87
2023-02-19T23:11:42.885Z,3.70
2023-02-19T23:15:54.386Z,7.57
2023-02-19T23:20:06.640Z,6.87
2023-02-19T23:24:18.277Z,4.13
2023-02-19T23:28:30.054Z,4.20
2023-02-19T23:32:41.560Z,3.67
2023-02-19T23:36:54.111Z,5.97
2023-02-19T23:41:10.661Z,5.47
2023-02-19T23:45:23.064Z,4.87
2023-02-19T23:49:34.563Z,6.20
2023-02-19T23:53:46.034Z,7.87
2023-02-19T23:57:57.633Z,6.57
